Time;durP1;ratioP1;P1;durP2;ratioP2;P2;SDS_P1;SDS_P2;PMS_P1;PMS_P2;Temp;Humidity;BMP_temperature;BMP_pressure;BME280_temperature;BME280_humidity;BME280_pressure;Samples;Min_cycle;Max_cycle;Signal;HPM_P1;HPM_P2
2022/05/01 00:00:36;;;;;;;0.88;0.70;;;9.90;69.60;;;;;;5115945;28;20031;-74
2022/05/01 00:03:02;;;;;;;1.50;0.73;;;9.90;69.00;;;;;;5097206;28;20071;-74
2022/05/01 00:05:29;;;;;;;0.70;0.70;;;9.90;69.10;;;;;;5097659;28;20047;-74
2022/05/01 00:07:55;;;;;;;0.85;0.75;;;9.90;69.10;;;;;;5115246;28;20040;-74
2022/05/01 00:10:21;;;;;;;1.02;0.70;;;9.90;69.10;;;;;;5115438;28;20039;-74
2022/05/01 00:12:46;;;;;;;0.60;0.60;;;9.90;69.10;;;;;;5115593;28;20134;-73
2022/05/01 00:15:12;;;;;;;0.52;0.50;;;9.90;69.20;;;;;;5115470;28;20382;-73
2022/05/01 00:17:38;;;;;;;0.70;0.60;;;9.90;69.30;;;;;;5097125;28;20089;-75
2022/05/01 00:20:04;;;;;;;0.75;0.63;;;9.90;69.30;;;;;;5115636;28;20477;-75
2022/05/01 00:22:30;;;;;;;0.77;0.60;;;9.80;69.30;;;;;;5115826;28;20044;-75
2022/05/01 00:24:55;;;;;;;1.30;0.80;;;9.90;69.40;;;;;;5096970;28;20045;-74
2022/05/01 00:27:22;;;;;;;1.70;0.88;;;9.80;69.40;;;;;;5097043;28;20443;-74
2022/05/01 00:29:48;;;;;;;1.02;0.73;;;9.80;69.40;;;;;;5115054;28;20052;-74
2022/05/01 00:32:14;;;;;;;1.08;0.70;;;9.80;69.50;;;;;;5115688;28;20051;-74
2022/05/01 00:37:19;;;;;;;1.00;0.80;;;9.80;69.60;;;;;;5115134;28;20097;-74
2022/05/01 00:39:46;;;;;;;0.90;0.73;;;9.80;69.60;;;;;;5096800;28;20039;-74
2022/05/01 00:42:12;;;;;;;0.82;0.80;;;9.80;69.70;;;;;;5114970;28;20040;-74
2022/05/01 00:44:39;;;;;;;0.70;0.60;;;9.80;69.70;;;;;;5096716;28;20043;-75
2022/05/01 00:47:04;;;;;;;2.63;1.10;;;9.80;69.80;;;;;;5115598;28;20392;-75
2022/05/01 00:49:30;;;;;;;0.50;0.50;;;9.80;69.80;;;;;;5115491;28;20035;-75
2022/05/01 00:52:00;;;;;;;0.80;0.70;;;9.70;69.90;;;;;;5115094;28;20411;-75
2022/05/01 00:54:28;;;;;;;1.20;0.90;;;9.70;70.50;;;;;;5113573;28;20047;-75
2022/05/01 00:56:57;;;;;;;0.65;0.60;;;9.70;69.90;;;;;;5115059;28;20043;-75
2022/05/01 00:59:23;;;;;;;0.93;0.70;;;9.70;69.90;;;;;;5115025;28;20057;-75
2022/05/01 01:01:50;;;;;;;0.90;0.60;;;9.80;70.00;;;;;;5096192;28;20130;-75
2022/05/01 01:04:17;;;;;;;0.70;0.70;;;9.70;70.00;;;;;;5114667;28;20039;-75
2022/05/01 01:06:43;;;;;;;1.50;0.60;;;9.70;70.10;;;;;;5096358;28;20036;-75
2022/05/01 01:09:10;;;;;;;0.80;0.70;;;9.70;70.10;;;;;;5114485;28;20032;-75
2022/05/01 01:11:38;;;;;;;1.00;0.70;;;9.70;70.10;;;;;;5079136;28;20052;-75
2022/05/01 01:14:05;;;;;;;0.85;0.80;;;9.70;70.20;;;;;;5114304;28;20035;-75
2022/05/01 01:16:34;;;;;;;0.68;0.60;;;9.70;70.20;;;;;;5114345;28;20040;-75
2022/05/01 01:19:03;;;;;;;0.68;0.68;;;9.60;70.20;;;;;;5114397;28;20044;-75
2022/05/01 01:21:28;;;;;;;0.80;0.70;;;9.60;70.20;;;;;;5114947;28;20043;-75
2022/05/01 01:23:54;;;;;;;1.10;0.80;;;9.60;70.30;;;;;;5114263;28;20057;-75
2022/05/01 01:26:21;;;;;;;0.65;0.65;;;9.60;70.30;;;;;;5079198;28;20435;-75
2022/05/01 01:28:50;;;;;;;1.70;0.88;;;9.60;70.40;;;;;;5096189;28;20527;-75
2022/05/01 01:34:00;;;;;;;0.90;0.60;;;9.60;70.40;;;;;;5098106;28;20043;-75
2022/05/01 01:36:28;;;;;;;0.60;0.60;;;9.60;70.40;;;;;;5096599;28;20100;-75
2022/05/01 01:38:55;;;;;;;0.68;0.68;;;9.60;70.50;;;;;;5114278;28;20320;-75
2022/05/01 01:41:24;;;;;;;0.90;0.60;;;9.70;70.60;;;;;;5095562;28;20489;-75
2022/05/01 01:43:51;;;;;;;0.98;0.70;;;9.60;70.50;;;;;;5095790;28;20071;-75
2022/05/01 01:46:17;;;;;;;0.95;0.80;;;9.60;70.50;;;;;;5113960;28;20043;-75
2022/05/01 01:48:46;;;;;;;0.60;0.55;;;9.60;70.60;;;;;;5113955;28;20046;-75
2022/05/01 01:51:12;;;;;;;0.88;0.60;;;9.50;70.60;;;;;;5114300;28;20072;-75
2022/05/01 01:53:38;;;;;;;0.60;0.60;;;9.50;70.70;;;;;;5114333;28;20101;-75
2022/05/01 01:56:05;;;;;;;0.77;0.68;;;9.50;70.70;;;;;;5114279;28;20048;-75
2022/05/01 01:58:31;;;;;;;0.57;0.50;;;9.50;70.80;;;;;;5113913;28;20044;-75
2022/05/01 02:00:59;;;;;;;2.03;0.88;;;9.50;70.90;;;;;;5095865;28;20418;-75
2022/05/01 02:03:26;;;;;;;0.70;0.68;;;9.50;71.00;;;;;;5113809;28;20035;-75
2022/05/01 02:05:51;;;;;;;0.60;0.60;;;9.50;71.00;;;;;;5113782;28;20122;-75
2022/05/01 02:08:18;;;;;;;0.70;0.60;;;9.50;71.00;;;;;;5113597;28;20501;-75
2022/05/01 02:10:44;;;;;;;0.60;0.57;;;9.40;71.00;;;;;;5094971;28;20044;-75
2022/05/01 02:13:10;;;;;;;0.95;0.77;;;9.50;71.10;;;;;;5113753;28;20040;-75
2022/05/01 02:15:37;;;;;;;0.80;0.75;;;9.40;71.20;;;;;;5114102;28;20131;-75
2022/05/01 02:18:04;;;;;;;0.80;0.68;;;9.40;71.20;;;;;;5111560;28;20062;-75
2022/05/01 02:23:08;;;;;;;0.60;0.52;;;9.40;71.40;;;;;;5095083;28;20489;-75
2022/05/01 02:25:36;;;;;;;0.75;0.70;;;9.50;71.40;;;;;;5113422;28;20032;-75
2022/05/01 02:28:01;;;;;;;0.60;0.60;;;9.40;71.40;;;;;;5113558;28;20401;-75
2022/05/01 02:30:27;;;;;;;1.00;0.80;;;9.30;71.30;;;;;;5095195;28;20042;-75
2022/05/01 02:32:53;;;;;;;0.95;0.70;;;9.40;71.40;;;;;;5113239;28;20075;-75
2022/05/01 02:35:18;;;;;;;1.27;0.95;;;9.40;71.40;;;;;;5113663;28;20043;-75
2022/05/01 02:37:45;;;;;;;0.88;0.80;;;9.40;71.40;;;;;;5095114;28;20039;-75
2022/05/01 02:40:11;;;;;;;1.60;1.10;;;9.30;71.40;;;;;;5113338;28;20509;-75
2022/05/01 02:42:37;;;;;;;0.73;0.73;;;9.30;71.60;;;;;;5113365;28;20043;-75
2022/05/01 02:45:03;;;;;;;1.27;0.82;;;9.30;71.70;;;;;;5113149;28;20393;-75
2022/05/01 02:47:29;;;;;;;0.65;0.60;;;9.30;71.70;;;;;;5113172;28;20069;-75
2022/05/01 02:49:55;;;;;;;1.13;0.93;;;9.30;71.70;;;;;;5095155;28;20469;-75
2022/05/01 02:52:21;;;;;;;1.17;0.90;;;9.30;71.70;;;;;;5113092;28;20042;-75
2022/05/01 02:54:47;;;;;;;1.02;0.70;;;9.20;71.60;;;;;;5094619;28;20058;-75
2022/05/01 02:57:13;;;;;;;0.93;0.70;;;9.20;71.70;;;;;;5094721;28;20477;-75
2022/05/01 02:59:39;;;;;;;1.10;0.70;;;9.30;71.90;;;;;;5094706;28;20171;-75
2022/05/01 03:02:05;;;;;;;1.63;0.90;;;9.20;71.90;;;;;;5113255;28;20069;-75
2022/05/01 03:04:31;;;;;;;0.70;0.70;;;9.20;72.00;;;;;;5094457;28;20043;-75
2022/05/01 03:06:56;;;;;;;0.98;0.70;;;9.10;71.90;;;;;;5094740;28;20110;-75
2022/05/01 03:09:22;;;;;;;1.73;0.88;;;9.10;71.90;;;;;;5113065;28;20100;-75
2022/05/01 03:11:48;;;;;;;0.80;0.75;;;9.10;71.90;;;;;;5112475;28;20067;-75
2022/05/01 03:14:14;;;;;;;1.17;0.80;;;9.20;72.00;;;;;;5094649;28;20066;-75
2022/05/01 03:16:39;;;;;;;1.08;0.75;;;9.20;72.00;;;;;;5112575;28;20063;-75
2022/05/01 03:24:23;;;;;;;0.90;0.70;;;9.00;72.10;;;;;;5094592;28;20054;-75
2022/05/01 03:26:49;;;;;;;0.80;0.70;;;9.20;72.20;;;;;;5112315;28;20036;-75
2022/05/01 03:29:16;;;;;;;1.00;0.80;;;9.00;72.20;;;;;;5112832;28;20047;-75
2022/05/01 03:31:42;;;;;;;1.67;0.80;;;9.10;72.30;;;;;;5112399;28;20426;-75
2022/05/01 03:34:08;;;;;;;1.27;0.80;;;9.00;72.30;;;;;;5094034;28;20047;-75
2022/05/01 03:36:34;;;;;;;1.50;0.90;;;9.00;72.30;;;;;;5112605;28;20032;-75
2022/05/01 03:39:00;;;;;;;1.20;0.82;;;9.00;72.40;;;;;;5093876;28;20062;-75
2022/05/01 03:41:27;;;;;;;0.98;0.75;;;9.10;72.50;;;;;;5112341;28;20493;-75
2022/05/01 03:43:53;;;;;;;0.93;0.75;;;8.90;72.40;;;;;;5112570;28;20428;-75
2022/05/01 03:46:20;;;;;;;0.68;0.60;;;9.00;72.50;;;;;;5093794;28;20089;-75
2022/05/01 03:48:46;;;;;;;1.10;0.80;;;8.90;72.60;;;;;;5112300;28;20028;-75
2022/05/01 03:51:13;;;;;;;1.08;0.80;;;8.80;72.70;;;;;;5112120;28;20051;-75
2022/05/01 03:53:39;;;;;;;1.00;0.82;;;8.80;72.70;;;;;;5112025;28;20036;-75
2022/05/01 03:56:05;;;;;;;0.82;0.60;;;8.90;72.80;;;;;;5112088;28;20088;-75
2022/05/01 03:58:31;;;;;;;0.80;0.77;;;8.80;72.80;;;;;;5094395;28;20036;-75
2022/05/01 04:00:57;;;;;;;1.10;0.80;;;8.80;72.80;;;;;;5093805;28;20043;-75
2022/05/01 04:03:23;;;;;;;1.27;0.70;;;8.80;73.50;;;;;;5094379;28;20088;-75
2022/05/01 04:05:49;;;;;;;0.68;0.68;;;8.70;72.90;;;;;;5112662;28;20039;-75
2022/05/01 04:08:15;;;;;;;0.82;0.70;;;8.80;72.90;;;;;;5094119;28;20515;-75
2022/05/01 04:10:43;;;;;;;0.65;0.65;;;8.80;72.90;;;;;;5112192;28;20035;-75
2022/05/01 04:13:10;;;;;;;0.73;0.70;;;8.80;73.60;;;;;;5112370;28;20047;-75
2022/05/01 04:15:36;;;;;;;0.90;0.70;;;8.80;73.00;;;;;;5112077;28;20039;-75
2022/05/01 04:18:04;;;;;;;1.42;0.70;;;8.70;73.00;;;;;;5093974;28;20054;-75
2022/05/01 04:20:30;;;;;;;0.80;0.80;;;8.70;73.00;;;;;;5077406;28;20039;-75
2022/05/01 04:22:56;;;;;;;0.90;0.70;;;8.70;73.10;;;;;;5112069;28;20066;-75
2022/05/01 04:25:25;;;;;;;0.93;0.73;;;8.70;73.10;;;;;;5112100;28;20508;-75
2022/05/01 04:27:55;;;;;;;0.90;0.70;;;8.70;73.10;;;;;;5111923;28;20047;-75
2022/05/01 04:30:22;;;;;;;0.82;0.70;;;8.70;73.10;;;;;;5111768;28;20047;-75
2022/05/01 04:32:51;;;;;;;0.90;0.60;;;8.80;73.20;;;;;;5113450;28;20039;-75
2022/05/01 04:35:29;;;;;;;0.98;0.80;;;8.70;73.20;;;;;;5115688;28;20583;-75
2022/05/01 04:37:59;;;;;;;0.75;0.70;;;8.70;73.20;;;;;;5097153;28;20036;-75
2022/05/01 04:40:28;;;;;;;0.70;0.70;;;8.80;73.20;;;;;;5115508;28;20051;-75
2022/05/01 04:43:01;;;;;;;0.90;0.60;;;8.90;73.30;;;;;;5115282;28;20050;-75
2022/05/01 04:45:29;;;;;;;1.23;0.70;;;8.80;73.20;;;;;;5097103;28;20043;-75
2022/05/01 04:47:55;;;;;;;1.17;0.80;;;8.70;73.20;;;;;;5097282;28;20035;-75
2022/05/01 04:50:21;;;;;;;1.08;0.70;;;8.70;73.20;;;;;;5115212;28;20119;-75
2022/05/01 04:52:46;;;;;;;0.93;0.70;;;8.80;73.20;;;;;;5080296;28;20472;-75
2022/05/01 04:55:12;;;;;;;0.95;0.73;;;8.80;73.20;;;;;;5115166;28;20521;-75
2022/05/01 04:57:39;;;;;;;1.45;1.00;;;8.90;73.20;;;;;;5115696;28;20096;-75
2022/05/01 05:00:07;;;;;;;0.77;0.70;;;8.80;73.20;;;;;;5097658;28;20066;-75
2022/05/01 05:02:36;;;;;;;0.93;0.75;;;8.80;73.20;;;;;;5115233;28;20123;-75
2022/05/01 05:05:02;;;;;;;1.30;0.93;;;8.80;73.20;;;;;;5115047;28;20069;-75
2022/05/01 05:07:30;;;;;;;1.00;0.80;;;8.80;73.20;;;;;;5115374;28;20069;-75
2022/05/01 05:09:55;;;;;;;0.95;0.70;;;8.90;73.20;;;;;;5096448;28;20080;-75
2022/05/01 05:12:22;;;;;;;0.75;0.65;;;8.90;73.30;;;;;;5115159;28;20044;-75
2022/05/01 05:14:51;;;;;;;1.05;0.90;;;8.90;73.20;;;;;;5080028;28;20047;-76
2022/05/01 05:17:18;;;;;;;0.90;0.70;;;9.00;73.20;;;;;;5115256;28;20089;-76
2022/05/01 05:19:45;;;;;;;0.75;0.75;;;8.90;73.20;;;;;;5114794;28;20061;-76
2022/05/01 05:22:11;;;;;;;0.90;0.80;;;8.90;73.20;;;;;;5096362;28;20118;-76
2022/05/01 05:24:37;;;;;;;0.77;0.77;;;9.00;73.10;;;;;;5096691;28;20063;-76
2022/05/01 05:27:03;;;;;;;1.35;0.90;;;9.00;73.10;;;;;;5115265;28;20474;-75
2022/05/01 05:29:29;;;;;;;1.10;0.80;;;9.10;73.10;;;;;;5080074;28;20064;-75
2022/05/01 05:31:55;;;;;;;1.00;0.90;;;9.10;73.10;;;;;;5114572;28;20044;-76
2022/05/01 05:34:20;;;;;;;0.70;0.60;;;9.10;73.00;;;;;;5079497;28;20120;-75
2022/05/01 05:36:47;;;;;;;1.25;0.88;;;9.20;73.00;;;;;;5114886;28;20504;-75
2022/05/01 05:39:13;;;;;;;1.33;1.00;;;9.20;72.90;;;;;;5114952;28;20043;-76
2022/05/01 05:41:39;;;;;;;1.02;0.80;;;9.30;72.90;;;;;;5062580;28;20504;-76
2022/05/01 05:44:05;;;;;;;0.70;0.70;;;9.40;72.90;;;;;;5113531;28;20039;-76
2022/05/01 05:46:31;;;;;;;0.73;0.68;;;9.40;72.80;;;;;;5095993;28;20048;-76
2022/05/01 05:48:57;;;;;;;1.10;0.82;;;9.50;72.70;;;;;;5096023;28;20054;-75
2022/05/01 05:51:22;;;;;;;1.00;0.77;;;9.50;72.60;;;;;;5079295;28;20552;-76
2022/05/01 05:53:50;;;;;;;1.10;0.70;;;9.60;72.50;;;;;;5079199;28;20058;-75
2022/05/01 05:56:17;;;;;;;1.30;0.90;;;9.70;72.50;;;;;;5114510;28;20036;-76
2022/05/01 05:58:43;;;;;;;1.10;0.68;;;9.70;72.30;;;;;;5079682;28;20088;-75
2022/05/01 06:01:10;;;;;;;1.00;0.80;;;9.80;72.30;;;;;;5096342;28;20044;-76
2022/05/01 06:03:36;;;;;;;1.13;1.00;;;9.80;72.20;;;;;;5114405;28;20043;-75
2022/05/01 06:06:03;;;;;;;1.35;0.80;;;9.90;72.20;;;;;;5114378;28;20071;-76
2022/05/01 06:08:29;;;;;;;1.23;0.90;;;10.00;72.10;;;;;;5113921;28;20047;-76
2022/05/01 06:10:54;;;;;;;1.13;0.77;;;10.10;72.10;;;;;;5114384;28;20502;-76
2022/05/01 06:13:20;;;;;;;0.60;0.60;;;10.10;72.00;;;;;;5114439;28;20042;-76
2022/05/01 06:15:46;;;;;;;0.93;0.80;;;10.20;71.90;;;;;;5113912;28;20109;-76
2022/05/01 06:18:12;;;;;;;1.17;0.82;;;10.20;71.80;;;;;;5114028;28;20050;-76
2022/05/01 06:20:38;;;;;;;1.20;0.90;;;10.30;71.80;;;;;;5114059;28;20118;-76
2022/05/01 06:23:04;;;;;;;1.10;1.00;;;10.40;71.70;;;;;;5114339;28;20050;-76
2022/05/01 06:25:30;;;;;;;1.02;0.80;;;10.50;71.70;;;;;;5116009;28;20400;-76
2022/05/01 06:27:56;;;;;;;1.45;0.80;;;10.60;71.50;;;;;;5114640;28;20043;-76
2022/05/01 06:30:21;;;;;;;1.67;1.08;;;10.60;71.40;;;;;;5115630;28;20055;-76
2022/05/01 06:32:48;;;;;;;0.82;0.77;;;10.70;71.40;;;;;;5096666;28;20201;-76
2022/05/01 06:35:16;;;;;;;1.25;0.98;;;10.70;71.30;;;;;;5114588;28;20035;-76
2022/05/01 06:37:43;;;;;;;0.93;0.80;;;10.80;71.30;;;;;;5096862;28;20047;-76
2022/05/01 06:40:09;;;;;;;0.70;0.70;;;10.90;71.20;;;;;;5115139;28;20044;-76
2022/05/01 06:42:35;;;;;;;1.45;1.10;;;10.90;71.10;;;;;;5063475;28;20071;-76
2022/05/01 06:45:03;;;;;;;1.08;0.90;;;11.00;71.20;;;;;;5113993;28;20040;-76
2022/05/01 06:47:28;;;;;;;1.15;0.93;;;11.00;71.10;;;;;;5095827;28;20043;-76
2022/05/01 06:49:54;;;;;;;1.20;1.00;;;11.10;71.00;;;;;;5078665;28;20069;-76
2022/05/01 06:52:23;;;;;;;1.33;1.08;;;11.20;70.90;;;;;;5113807;28;20059;-76
2022/05/01 06:54:51;;;;;;;1.15;1.05;;;11.30;70.80;;;;;;5095096;28;20047;-76
2022/05/01 06:57:17;;;;;;;1.98;1.02;;;11.40;70.80;;;;;;5113688;28;20133;-76
2022/05/01 06:59:42;;;;;;;2.22;1.20;;;11.40;70.60;;;;;;5095631;28;20070;-76
2022/05/01 07:02:08;;;;;;;1.63;1.02;;;11.50;70.60;;;;;;5113737;28;20044;-75
2022/05/01 07:04:34;;;;;;;1.42;1.00;;;11.50;70.50;;;;;;5113444;28;20035;-75
2022/05/01 07:07:00;;;;;;;1.25;1.15;;;11.60;70.40;;;;;;5113097;28;20044;-75
2022/05/01 07:09:26;;;;;;;1.55;0.90;;;11.70;71.00;;;;;;5113526;28;20040;-75
2022/05/01 07:11:52;;;;;;;1.65;1.08;;;11.80;70.30;;;;;;5078736;28;20042;-74
2022/05/01 07:14:17;;;;;;;1.05;0.95;;;11.80;70.20;;;;;;5096372;28;20039;-74
2022/05/01 07:16:43;;;;;;;1.20;1.02;;;11.90;70.10;;;;;;5114343;28;20051;-74
2022/05/01 07:19:16;;;;;;;1.63;1.10;;;11.90;70.20;;;;;;5095256;28;20055;-73
2022/05/01 07:21:42;;;;;;;1.08;0.95;;;12.00;70.10;;;;;;5113261;28;20052;-75
2022/05/01 07:24:10;;;;;;;1.35;1.17;;;12.00;70.00;;;;;;5095445;28;20050;-75
2022/05/01 07:26:35;;;;;;;1.02;0.85;;;12.10;70.20;;;;;;5113188;28;20040;-75
2022/05/01 07:29:03;;;;;;;1.27;1.10;;;12.10;70.20;;;;;;5113963;28;20039;-75
2022/05/01 07:31:29;;;;;;;0.75;0.68;;;12.10;70.10;;;;;;5112901;28;20506;-75
2022/05/01 07:33:55;;;;;;;1.05;0.82;;;12.20;70.20;;;;;;5112687;28;20430;-75
2022/05/01 07:36:21;;;;;;;1.00;0.88;;;12.30;70.20;;;;;;5094994;28;20043;-75
2022/05/01 07:38:49;;;;;;;1.05;0.90;;;12.20;70.10;;;;;;5112515;28;20039;-75
2022/05/01 07:41:16;;;;;;;1.45;1.05;;;12.30;70.10;;;;;;5094285;28;20493;-75
2022/05/01 07:43:43;;;;;;;1.10;0.90;;;12.30;70.10;;;;;;5077408;28;20134;-75
2022/05/01 07:46:09;;;;;;;1.10;0.90;;;12.40;70.10;;;;;;5113028;28;20071;-75
2022/05/01 07:48:35;;;;;;;1.77;1.00;;;12.40;69.90;;;;;;5112808;28;20481;-75
2022/05/01 07:51:02;;;;;;;1.50;1.05;;;12.50;69.80;;;;;;5112344;28;20039;-74
2022/05/01 07:53:27;;;;;;;0.88;0.80;;;12.70;69.80;;;;;;5112931;28;20066;-75
2022/05/01 07:55:53;;;;;;;0.90;0.80;;;12.70;69.60;;;;;;5112942;28;20067;-74
2022/05/01 07:58:20;;;;;;;1.73;1.02;;;12.70;69.60;;;;;;5112507;28;20489;-75
2022/05/01 08:00:46;;;;;;;1.50;1.13;;;12.80;69.60;;;;;;5112923;28;20134;-75
2022/05/01 08:05:55;;;;;;;1.23;1.05;;;13.10;69.20;;;;;;5112308;28;20143;-75
2022/05/01 08:08:21;;;;;;;2.28;1.48;;;13.20;69.00;;;;;;5096268;28;20100;-75
2022/05/01 08:10:47;;;;;;;1.38;1.10;;;13.50;68.80;;;;;;5116421;28;20057;-74
2022/05/01 08:13:12;;;;;;;1.40;1.08;;;13.80;68.40;;;;;;5115763;28;20032;-74
2022/05/01 08:15:38;;;;;;;1.75;1.25;;;14.00;67.90;;;;;;5115845;28;20035;-75
2022/05/01 08:23:26;;;;;;;1.65;1.35;;;14.60;66.90;;;;;;5115686;28;20048;-75
2022/05/01 08:25:52;;;;;;;1.25;1.13;;;14.50;66.90;;;;;;5116217;28;20067;-73
2022/05/01 08:28:18;;;;;;;1.10;1.00;;;14.50;67.20;;;;;;5116142;28;20521;-73
2022/05/01 08:30:43;;;;;;;1.80;1.17;;;14.40;67.30;;;;;;5097195;28;20122;-74
2022/05/01 08:33:09;;;;;;;1.33;1.13;;;14.50;67.70;;;;;;5115727;28;20122;-73
2022/05/01 08:35:35;;;;;;;2.42;1.10;;;14.40;67.70;;;;;;5115441;28;20140;-75
2022/05/01 08:38:00;;;;;;;1.65;1.10;;;14.40;68.00;;;;;;5115962;28;20472;-75
2022/05/01 08:40:27;;;;;;;1.00;0.90;;;14.50;68.10;;;;;;5116075;28;20043;-72
2022/05/01 08:42:52;;;;;;;1.52;1.20;;;14.60;67.70;;;;;;5115976;28;20044;-74
2022/05/01 08:45:25;;;;;;;2.88;1.27;;;15.00;67.60;;;;;;5115910;28;20451;-74
2022/05/01 08:48:12;;;;;;;1.90;1.30;;;15.20;67.00;;;;;;5115342;28;20067;-72
2022/05/01 08:50:38;;;;;;;1.40;1.00;;;15.50;67.10;;;;;;5114589;28;20048;-72
2022/05/01 08:53:06;;;;;;;2.28;1.52;;;15.70;66.30;;;;;;5115729;28;20468;-72
2022/05/01 08:55:32;;;;;;;0.93;0.90;;;16.00;66.60;;;;;;5115198;28;20039;-72
2022/05/01 08:57:59;;;;;;;1.50;1.05;;;16.20;65.50;;;;;;5115327;28;20054;-72
2022/05/01 09:00:27;;;;;;;2.03;1.42;;;16.40;65.10;;;;;;5115694;28;20069;-73
2022/05/01 09:02:52;;;;;;;1.65;1.10;;;16.50;65.10;;;;;;5115643;28;20126;-72
2022/05/01 09:05:18;;;;;;;1.30;1.02;;;16.60;65.00;;;;;;5115037;28;20075;-72
2022/05/01 09:07:45;;;;;;;1.55;1.20;;;16.60;65.00;;;;;;5096698;28;20477;-73
2022/05/01 09:10:13;;;;;;;1.13;1.02;;;16.70;64.90;;;;;;5115417;28;20055;-73
2022/05/01 09:12:55;;;;;;;2.22;1.50;;;16.60;64.80;;;;;;5114885;28;20579;-73
2022/05/01 09:15:31;;;;;;;2.00;1.48;;;16.50;65.10;;;;;;5096338;28;20448;-73
2022/05/01 09:18:03;;;;;;;1.75;1.30;;;16.40;65.40;;;;;;5114898;28;20059;-74
2022/05/01 09:20:29;;;;;;;1.60;1.00;;;16.30;66.00;;;;;;5111723;28;20532;-74
2022/05/01 09:22:57;;;;;;;1.38;1.08;;;16.30;66.20;;;;;;5114585;28;20055;-72
2022/05/01 09:25:24;;;;;;;0.98;0.90;;;16.30;66.20;;;;;;5080090;28;20105;-72
2022/05/01 09:27:57;;;;;;;1.52;1.15;;;16.30;66.20;;;;;;5114468;28;20101;-72
2022/05/01 09:30:31;;;;;;;1.10;0.90;;;16.30;66.30;;;;;;5114410;28;20092;-72
2022/05/01 09:32:57;;;;;;;1.30;1.02;;;16.30;66.20;;;;;;5114988;28;20035;-72
2022/05/01 09:35:31;;;;;;;2.58;1.17;;;16.20;66.40;;;;;;5114768;28;20031;-72
2022/05/01 09:38:17;;;;;;;1.83;1.02;;;16.10;66.50;;;;;;5114384;28;20122;-71
2022/05/01 09:40:44;;;;;;;1.25;1.00;;;16.10;66.80;;;;;;5114207;28;20122;-71
2022/05/01 09:43:44;;;;;;;1.92;1.27;;;16.00;66.90;;;;;;5114264;28;20050;-71
2022/05/01 09:46:16;;;;;;;1.40;0.90;;;15.70;66.60;;;;;;5113549;28;20052;-72
2022/05/01 09:48:56;;;;;;;0.75;0.75;;;15.30;67.30;;;;;;5114466;28;20040;-71
2022/05/01 09:51:22;;;;;;;1.10;0.93;;;15.20;67.90;;;;;;5114203;28;20047;-72
2022/05/01 09:53:48;;;;;;;1.10;1.00;;;15.10;68.10;;;;;;5114732;28;20060;-73
2022/05/01 09:56:13;;;;;;;1.42;0.90;;;15.10;67.70;;;;;;5114768;28;20123;-72
2022/05/01 09:58:42;;;;;;;0.95;0.90;;;14.90;67.80;;;;;;5096184;28;20038;-71
2022/05/01 10:01:10;;;;;;;0.90;0.70;;;14.80;67.80;;;;;;5113949;28;20043;-72
2022/05/01 10:03:40;;;;;;;1.73;1.00;;;14.80;67.90;;;;;;5114027;28;20047;-71
2022/05/01 10:06:09;;;;;;;1.45;1.00;;;14.70;67.50;;;;;;5112810;28;20046;-71
2022/05/01 10:08:37;;;;;;;1.40;1.02;;;14.70;67.50;;;;;;5094204;28;20130;-70
2022/05/01 10:11:04;;;;;;;1.58;1.00;;;14.70;67.50;;;;;;5113789;28;20048;-75
2022/05/01 10:13:31;;;;;;;1.60;1.15;;;14.60;67.50;;;;;;5113892;28;20043;-72
2022/05/01 10:15:59;;;;;;;2.03;1.15;;;14.50;67.40;;;;;;5114089;28;20040;-72
2022/05/01 10:18:25;;;;;;;1.17;1.00;;;14.50;67.30;;;;;;5113905;28;20046;-71
2022/05/01 10:20:51;;;;;;;1.02;0.80;;;14.40;67.30;;;;;;5095749;28;20109;-72
2022/05/01 10:23:17;;;;;;;1.27;0.90;;;14.30;67.40;;;;;;5113838;28;20032;-72
2022/05/01 10:25:51;;;;;;;1.40;1.00;;;14.30;67.30;;;;;;5113850;28;20039;-72
2022/05/01 10:28:45;;;;;;;1.55;0.98;;;14.30;67.10;;;;;;5113881;28;20047;-72
2022/05/01 10:34:38;;;;;;;1.10;0.90;;;14.20;66.90;;;;;;5098730;28;20035;-72
2022/05/01 10:37:39;;;;;;;1.27;1.00;;;14.20;66.90;;;;;;5112945;28;20063;-72
2022/05/01 10:40:06;;;;;;;0.90;0.80;;;14.20;66.70;;;;;;5081528;28;20054;-72
2022/05/01 10:42:38;;;;;;;1.48;0.98;;;14.20;66.60;;;;;;5113585;28;20043;-73
2022/05/01 10:45:40;;;;;;;0.70;0.70;;;14.30;66.40;;;;;;5113209;28;20039;-73
2022/05/01 10:48:11;;;;;;;0.82;0.77;;;14.30;66.10;;;;;;5113537;28;20043;-73
2022/05/01 10:50:38;;;;;;;;;;;14.30;66.00;;;;;;5114214;28;20039;-72
2022/05/01 10:53:06;;;;;;;1.17;0.85;;;14.30;66.10;;;;;;5113159;28;20399;-72
2022/05/01 10:55:53;;;;;;;1.00;0.75;;;14.40;65.90;;;;;;5095047;28;20035;-72
2022/05/01 10:58:23;;;;;;;1.35;0.80;;;14.30;65.60;;;;;;5112554;28;20040;-72
2022/05/01 11:00:50;;;;;;;1.20;1.10;;;14.40;65.60;;;;;;5113524;28;20044;-73
2022/05/01 11:03:32;;;;;;;1.35;1.23;;;14.40;65.20;;;;;;5095037;28;20382;-72
2022/05/01 11:06:08;;;;;;;1.70;1.10;;;14.50;64.90;;;;;;5111767;28;20087;-73
2022/05/01 11:08:37;;;;;;;1.15;1.00;;;14.60;64.70;;;;;;5113045;28;20039;-73
2022/05/01 11:11:05;;;;;;;0.82;0.75;;;14.60;64.50;;;;;;5113576;28;20039;-72
2022/05/01 11:13:33;;;;;;;1.02;0.90;;;14.70;64.40;;;;;;5112983;28;20040;-72
2022/05/01 11:16:00;;;;;;;1.58;1.02;;;14.70;64.20;;;;;;5113278;28;20038;-73
2022/05/01 11:18:30;;;;;;;1.48;0.98;;;14.70;64.10;;;;;;5094907;28;20038;-72
2022/05/01 11:21:16;;;;;;;1.42;1.00;;;14.80;64.20;;;;;;5113391;28;20044;-73
2022/05/01 11:23:43;;;;;;;1.08;0.98;;;14.80;64.10;;;;;;5097533;28;20062;-73
2022/05/01 11:26:13;;;;;;;1.35;1.10;;;14.90;63.90;;;;;;5112972;28;20046;-72
2022/05/01 11:28:52;;;;;;;1.48;0.90;;;14.90;63.60;;;;;;5113288;28;20519;-72
2022/05/01 11:31:40;;;;;;;0.98;0.77;;;14.90;63.40;;;;;;5111816;28;20069;-72
2022/05/01 11:34:33;;;;;;;1.13;1.00;;;15.10;63.30;;;;;;5097666;28;20040;-73
2022/05/01 11:37:03;;;;;;;2.03;1.20;;;15.20;63.20;;;;;;5112427;28;20036;-73
2022/05/01 11:40:04;;;;;;;1.30;0.90;;;15.10;63.00;;;;;;5094347;28;20381;-72
2022/05/01 11:42:36;;;;;;;1.02;0.90;;;15.00;63.20;;;;;;5113789;28;20479;-72
2022/05/01 11:45:04;;;;;;;1.63;1.13;;;15.00;63.40;;;;;;5114628;28;20040;-72
2022/05/01 11:47:33;;;;;;;1.58;1.10;;;15.10;63.30;;;;;;5097940;28;20071;-72
2022/05/01 11:49:59;;;;;;;1.77;1.20;;;15.20;63.10;;;;;;5116182;28;20032;-72
2022/05/01 11:52:25;;;;;;;1.17;1.05;;;15.30;62.70;;;;;;5080964;28;20070;-72
2022/05/01 11:54:54;;;;;;;1.10;1.00;;;15.40;62.40;;;;;;5115874;28;20059;-72
2022/05/01 12:02:40;;;;;;;1.55;1.17;;;15.30;62.50;;;;;;5116012;28;20043;-73
2022/05/01 12:05:07;;;;;;;1.05;0.90;;;15.50;62.50;;;;;;5116581;28;20085;-73
2022/05/01 12:07:33;;;;;;;1.05;0.93;;;15.60;62.20;;;;;;5097466;28;20040;-74
2022/05/01 12:09:58;;;;;;;1.50;1.10;;;15.70;61.90;;;;;;5097618;28;20047;-75
2022/05/01 12:12:28;;;;;;;1.75;1.10;;;15.70;61.70;;;;;;5116070;28;20032;-75
2022/05/01 12:14:54;;;;;;;1.38;1.20;;;15.70;61.70;;;;;;5097649;28;20039;-74
2022/05/01 12:17:21;;;;;;;1.30;1.20;;;15.60;61.60;;;;;;5115654;28;20096;-74
2022/05/01 12:19:49;;;;;;;1.58;1.20;;;15.70;61.90;;;;;;5115575;28;20044;-73
2022/05/01 12:22:17;;;;;;;1.55;1.10;;;15.80;61.90;;;;;;5115468;28;20074;-74
2022/05/01 12:24:45;;;;;;;0.70;0.70;;;16.00;61.40;;;;;;5115404;28;20126;-73
2022/05/01 12:27:13;;;;;;;3.72;2.55;;;16.10;61.00;;;;;;5116022;28;20465;-73
2022/05/01 12:29:46;;;;;;;1.30;1.20;;;16.10;60.80;;;;;;5115837;28;20602;-73
2022/05/01 12:32:14;;;;;;;2.70;1.85;;;16.20;60.70;;;;;;5115512;28;20039;-73
2022/05/01 12:34:56;;;;;;;1.88;1.30;;;16.20;60.50;;;;;;5115392;28;20036;-74
2022/05/01 12:37:29;;;;;;;2.22;1.60;;;16.20;60.60;;;;;;5115733;28;20036;-74
2022/05/01 12:40:12;;;;;;;1.67;1.20;;;16.30;60.50;;;;;;5096755;28;20036;-73
2022/05/01 12:45:39;;;;;;;2.15;1.30;;;16.00;60.50;;;;;;5115569;28;20036;-74
2022/05/01 12:48:09;;;;;;;1.17;1.08;;;15.80;60.90;;;;;;5116151;28;20042;-73
2022/05/01 12:50:38;;;;;;;1.17;1.05;;;15.80;61.20;;;;;;5115115;28;20063;-73
2022/05/01 12:53:24;;;;;;;2.30;1.30;;;16.00;61.20;;;;;;5097647;28;20035;-72
2022/05/01 12:55:50;;;;;;;1.48;1.00;;;16.10;60.80;;;;;;5114822;28;20035;-73
2022/05/01 12:58:27;;;;;;;1.33;1.02;;;16.10;60.70;;;;;;5115047;28;20065;-73
2022/05/01 13:00:53;;;;;;;1.38;0.90;;;16.10;60.40;;;;;;5113655;28;20122;-75
2022/05/01 13:03:28;;;;;;;1.52;1.20;;;16.20;60.40;;;;;;5115001;28;20118;-73
2022/05/01 13:06:11;;;;;;;0.80;0.80;;;16.20;60.20;;;;;;5096614;28;20047;-75
2022/05/01 13:08:43;;;;;;;1.10;1.00;;;16.20;60.40;;;;;;5114866;28;20100;-74
2022/05/01 13:11:21;;;;;;;1.48;1.10;;;16.10;60.40;;;;;;5114866;28;20473;-74
2022/05/01 13:14:01;;;;;;;1.40;1.10;;;16.20;60.30;;;;;;5114314;28;20039;-74
2022/05/01 13:16:47;;;;;;;1.13;0.90;;;16.40;60.20;;;;;;5081175;28;20036;-74
2022/05/01 13:19:15;;;;;;;0.95;0.90;;;16.40;59.90;;;;;;5114599;28;20326;-74
2022/05/01 13:21:44;;;;;;;1.05;0.70;;;16.30;59.90;;;;;;5096205;28;20051;-73
2022/05/01 13:24:29;;;;;;;1.60;1.17;;;16.30;60.00;;;;;;5096282;28;20051;-70
2022/05/01 13:26:57;;;;;;;1.42;0.98;;;16.20;60.00;;;;;;5114703;28;20032;-73
2022/05/01 13:29:23;;;;;;;1.30;0.90;;;16.10;60.30;;;;;;5114899;28;20426;-73
2022/05/01 13:31:49;;;;;;;1.42;1.20;;;15.90;60.40;;;;;;5096421;28;20063;-74